Time;durP1;ratioP1;P1;durP2;ratioP2;P2;SDS_P1;SDS_P2;PMS_P1;PMS_P2;Temp;Humidity;BMP_temperature;BMP_pressure;BME280_temperature;BME280_humidity;BME280_pressure;Samples;Min_cycle;Max_cycle;Signal;HPM_P1;HPM_P2
2023/10/26 00:00:18;;;;;;;12.25;3.47;;;17.70;99.90;;;;;;5111624;28;20486;-62
2023/10/26 00:02:43;;;;;;;17.52;3.83;;;17.70;99.90;;;;;;5112087;28;20484;-63
2023/10/26 00:05:09;;;;;;;12.88;2.95;;;17.70;99.90;;;;;;5111685;28;20115;-63
2023/10/26 00:07:35;;;;;;;17.10;3.85;;;17.70;99.90;;;;;;5111503;28;20411;-63
2023/10/26 00:10:00;;;;;;;12.90;3.15;;;17.70;99.90;;;;;;5111360;28;20414;-63
2023/10/26 00:12:26;;;;;;;16.67;3.28;;;17.70;99.90;;;;;;5111537;28;20032;-63
2023/10/26 00:14:52;;;;;;;12.73;2.90;;;17.70;99.90;;;;;;5111978;28;20026;-63
2023/10/26 00:17:18;;;;;;;14.50;3.58;;;17.70;99.90;;;;;;5111184;28;20031;-64
2023/10/26 00:19:44;;;;;;;12.50;3.13;;;17.80;99.90;;;;;;5111810;28;20036;-63
2023/10/26 00:22:09;;;;;;;14.63;3.15;;;17.70;99.90;;;;;;5111266;28;20498;-63
2023/10/26 00:24:37;;;;;;;18.85;4.20;;;17.80;99.90;;;;;;5111050;28;20031;-64
2023/10/26 00:27:03;;;;;;;15.85;3.85;;;17.70;99.90;;;;;;5111778;28;20028;-63
2023/10/26 00:29:29;;;;;;;20.42;4.18;;;17.80;99.90;;;;;;5111328;28;20043;-63
2023/10/26 00:31:56;;;;;;;20.33;4.05;;;17.80;99.90;;;;;;5111318;28;20399;-63
2023/10/26 00:34:22;;;;;;;24.30;5.18;;;17.80;99.90;;;;;;5111298;28;20048;-63
2023/10/26 00:36:48;;;;;;;19.60;4.75;;;18.00;99.90;;;;;;5111206;28;20081;-63
2023/10/26 00:39:13;;;;;;;27.10;5.53;;;18.10;99.90;;;;;;5110912;28;20086;-63
2023/10/26 00:41:39;;;;;;;22.15;4.95;;;18.30;99.90;;;;;;5111662;28;20432;-63
2023/10/26 00:44:05;;;;;;;23.80;5.22;;;18.30;99.90;;;;;;5111100;28;20457;-63
2023/10/26 00:46:31;;;;;;;21.25;5.03;;;18.30;99.90;;;;;;5111224;28;20020;-63
2023/10/26 00:48:57;;;;;;;24.33;5.80;;;18.40;99.90;;;;;;5111018;28;20028;-63
2023/10/26 00:51:23;;;;;;;26.45;6.00;;;18.30;99.90;;;;;;5111147;28;20051;-63
2023/10/26 00:53:50;;;;;;;27.10;6.25;;;18.40;99.90;;;;;;5110799;28;20031;-63
2023/10/26 00:56:20;;;;;;;24.35;4.70;;;18.40;99.90;;;;;;5110979;28;20061;-63
2023/10/26 00:58:47;;;;;;;22.45;5.22;;;18.40;99.90;;;;;;5111235;28;20067;-63
2023/10/26 01:01:13;;;;;;;20.95;5.28;;;18.50;99.90;;;;;;5111181;28;20020;-63
2023/10/26 01:03:40;;;;;;;24.70;5.45;;;18.50;99.90;;;;;;5111068;28;20073;-64
2023/10/26 01:06:08;;;;;;;21.30;5.10;;;18.30;99.90;;;;;;5110735;28;20024;-63
2023/10/26 01:08:34;;;;;;;24.48;5.22;;;18.40;99.90;;;;;;5110689;28;20027;-63
2023/10/26 01:11:01;;;;;;;23.35;5.38;;;18.30;99.90;;;;;;5113959;28;20020;-63
2023/10/26 01:13:29;;;;;;;24.90;5.10;;;18.20;99.90;;;;;;5114846;28;20032;-63
2023/10/26 01:15:55;;;;;;;22.48;4.80;;;18.10;99.90;;;;;;5114554;28;20509;-63
2023/10/26 01:18:21;;;;;;;24.55;4.95;;;17.90;99.90;;;;;;5114454;28;20077;-62
2023/10/26 01:20:47;;;;;;;25.90;5.20;;;17.90;99.90;;;;;;5114744;28;20390;-63
2023/10/26 01:23:12;;;;;;;22.77;4.93;;;17.90;99.90;;;;;;5114738;28;20031;-63
2023/10/26 01:25:39;;;;;;;20.38;4.85;;;17.80;99.90;;;;;;5114474;28;20112;-63
2023/10/26 01:28:06;;;;;;;27.13;5.43;;;17.80;99.90;;;;;;5114452;28;20103;-63
2023/10/26 01:30:32;;;;;;;24.73;5.05;;;17.80;99.90;;;;;;5115076;28;20027;-63
2023/10/26 01:32:58;;;;;;;31.63;5.50;;;17.80;99.90;;;;;;5114336;28;20019;-63
2023/10/26 01:35:24;;;;;;;24.85;5.35;;;17.70;99.90;;;;;;5114349;28;20034;-63
2023/10/26 01:37:50;;;;;;;24.45;5.53;;;17.70;99.90;;;;;;5114430;28;20031;-63
2023/10/26 01:40:15;;;;;;;30.23;5.15;;;17.70;99.90;;;;;;5114031;28;20038;-63
2023/10/26 01:42:41;;;;;;;29.27;5.80;;;17.70;99.90;;;;;;5114442;28;20389;-63
2023/10/26 01:45:08;;;;;;;30.95;6.70;;;17.70;99.90;;;;;;5114353;28;20431;-63
2023/10/26 01:47:33;;;;;;;32.22;6.93;;;17.60;99.90;;;;;;5095726;28;20036;-63
2023/10/26 01:49:59;;;;;;;30.52;6.72;;;17.60;99.90;;;;;;5113872;28;20027;-63
2023/10/26 01:52:25;;;;;;;37.03;7.55;;;17.60;99.90;;;;;;5114036;28;20023;-62
2023/10/26 01:54:51;;;;;;;34.70;6.95;;;17.60;99.90;;;;;;5113862;28;20023;-63
2023/10/26 01:57:17;;;;;;;37.13;7.68;;;17.60;99.90;;;;;;5114354;28;20367;-63
2023/10/26 01:59:42;;;;;;;35.70;7.88;;;17.60;99.90;;;;;;5113876;28;20569;-62
2023/10/26 02:02:08;;;;;;;37.63;8.02;;;17.60;99.90;;;;;;5113717;28;20098;-64
2023/10/26 02:04:34;;;;;;;39.35;7.68;;;17.50;99.90;;;;;;5113216;28;20038;-64
2023/10/26 02:06:59;;;;;;;42.67;8.93;;;17.50;99.90;;;;;;5114128;28;20051;-62
2023/10/26 02:09:25;;;;;;;39.83;7.95;;;17.50;99.90;;;;;;5113791;28;20042;-63
2023/10/26 02:11:51;;;;;;;35.33;8.35;;;17.50;99.90;;;;;;5113551;28;20024;-64
2023/10/26 02:14:16;;;;;;;35.15;7.85;;;17.60;99.90;;;;;;5113726;28;20058;-64
2023/10/26 02:16:42;;;;;;;37.30;7.63;;;17.80;99.90;;;;;;5113336;28;20060;-63
2023/10/26 02:19:08;;;;;;;34.15;7.95;;;17.90;99.90;;;;;;5113557;28;20591;-63
2023/10/26 02:21:35;;;;;;;37.67;8.10;;;18.00;99.90;;;;;;5113127;28;20027;-63
2023/10/26 02:24:00;;;;;;;37.47;8.07;;;18.10;99.90;;;;;;5113313;28;20023;-63
2023/10/26 02:26:26;;;;;;;35.72;8.35;;;18.10;99.90;;;;;;5113350;28;20489;-63
2023/10/26 02:28:52;;;;;;;34.08;8.40;;;18.10;99.90;;;;;;5112963;28;20047;-63
2023/10/26 02:31:18;;;;;;;31.27;7.90;;;18.10;99.90;;;;;;5113679;28;20463;-64
2023/10/26 02:33:43;;;;;;;30.85;7.07;;;18.20;99.90;;;;;;5113080;28;20026;-63
2023/10/26 02:36:09;;;;;;;30.73;7.22;;;18.20;99.90;;;;;;5113108;28;20110;-63
2023/10/26 02:38:34;;;;;;;29.33;7.18;;;18.20;99.90;;;;;;5113274;28;20092;-63
2023/10/26 02:41:04;;;;;;;26.85;6.60;;;18.20;99.90;;;;;;5113182;28;20076;-63
2023/10/26 02:43:31;;;;;;;26.63;6.80;;;18.10;99.90;;;;;;5113314;28;20031;-63
2023/10/26 02:46:08;;;;;;;27.65;7.15;;;18.20;99.90;;;;;;5112996;28;20550;-63
2023/10/26 02:48:34;;;;;;;27.25;7.00;;;18.10;99.90;;;;;;5112787;28;20485;-63
2023/10/26 02:51:00;;;;;;;29.42;7.00;;;18.10;99.90;;;;;;5112960;28;20023;-62
2023/10/26 02:53:26;;;;;;;29.75;7.28;;;17.90;99.90;;;;;;5112966;28;20083;-63
2023/10/26 02:55:52;;;;;;;28.25;6.85;;;17.80;99.90;;;;;;5113033;28;20016;-63
2023/10/26 02:58:17;;;;;;;28.40;6.57;;;17.70;99.90;;;;;;5094517;28;20039;-63
2023/10/26 03:00:43;;;;;;;32.85;6.90;;;17.60;99.90;;;;;;5112813;28;20026;-63
2023/10/26 03:03:09;;;;;;;27.58;7.63;;;17.60;99.90;;;;;;5112263;28;20477;-63
2023/10/26 03:05:35;;;;;;;29.35;7.18;;;17.50;99.90;;;;;;5112922;28;20024;-63
2023/10/26 03:08:01;;;;;;;36.15;7.35;;;17.50;99.90;;;;;;5112316;28;20080;-63
2023/10/26 03:10:28;;;;;;;32.40;7.32;;;17.40;99.90;;;;;;5112728;28;20035;-63
2023/10/26 03:12:53;;;;;;;30.98;7.35;;;17.40;99.90;;;;;;5112376;28;20046;-63
2023/10/26 03:15:19;;;;;;;28.17;6.60;;;17.40;99.90;;;;;;5112436;28;20482;-63
2023/10/26 03:17:45;;;;;;;29.65;6.70;;;17.40;99.90;;;;;;5111863;28;20020;-62
2023/10/26 03:20:11;;;;;;;29.08;6.60;;;17.40;99.90;;;;;;5112588;28;20162;-63
2023/10/26 03:22:37;;;;;;;28.27;6.55;;;17.40;99.90;;;;;;5112445;28;20019;-63
2023/10/26 03:25:05;;;;;;;30.20;7.38;;;17.40;99.90;;;;;;5112076;28;20042;-63
2023/10/26 03:27:31;;;;;;;26.98;6.80;;;17.40;99.90;;;;;;5112576;28;20023;-63
2023/10/26 03:29:57;;;;;;;28.55;7.10;;;17.40;99.90;;;;;;5111957;28;20414;-63
2023/10/26 03:32:22;;;;;;;33.78;7.13;;;17.40;99.90;;;;;;5111278;28;20019;-63
2023/10/26 03:34:48;;;;;;;31.67;7.25;;;17.30;99.90;;;;;;5111951;28;20028;-63
2023/10/26 03:37:15;;;;;;;30.63;7.88;;;17.30;99.90;;;;;;5112006;28;20028;-63
2023/10/26 03:39:40;;;;;;;30.25;7.22;;;17.30;99.90;;;;;;5093879;28;20035;-63
2023/10/26 03:42:06;;;;;;;30.08;7.20;;;17.30;99.90;;;;;;5112163;28;20481;-63
2023/10/26 03:44:32;;;;;;;34.70;7.63;;;17.30;99.90;;;;;;5112166;28;20023;-63
2023/10/26 03:46:58;;;;;;;33.47;7.15;;;17.30;99.90;;;;;;5111618;28;20030;-63
2023/10/26 03:49:23;;;;;;;33.30;7.53;;;17.30;99.90;;;;;;5111800;28;20034;-63
2023/10/26 03:51:49;;;;;;;31.48;7.40;;;17.30;99.90;;;;;;5111765;28;20043;-63
2023/10/26 03:54:15;;;;;;;32.47;7.53;;;17.50;99.90;;;;;;5111618;28;20561;-63
2023/10/26 03:56:41;;;;;;;33.97;6.95;;;17.60;99.90;;;;;;5111803;28;20041;-63
2023/10/26 03:59:07;;;;;;;30.08;7.20;;;17.70;99.90;;;;;;5111980;28;20084;-63
2023/10/26 04:01:34;;;;;;;33.40;7.70;;;17.70;99.90;;;;;;5093294;28;20098;-63
2023/10/26 04:04:01;;;;;;;31.95;7.18;;;17.90;99.90;;;;;;5111704;28;20107;-63
2023/10/26 04:06:27;;;;;;;27.77;6.95;;;18.00;99.90;;;;;;5111388;28;20054;-63
2023/10/26 04:08:56;;;;;;;28.20;6.95;;;18.00;99.90;;;;;;5111622;28;20059;-63
2023/10/26 04:11:22;;;;;;;33.25;7.30;;;18.00;99.90;;;;;;5111473;28;20062;-63
2023/10/26 04:13:48;;;;;;;31.38;6.82;;;18.10;99.90;;;;;;5111494;28;20028;-64
2023/10/26 04:16:13;;;;;;;29.05;6.85;;;18.10;99.90;;;;;;5111308;28;20073;-64
2023/10/26 04:18:39;;;;;;;32.63;8.13;;;18.10;99.90;;;;;;5111611;28;20088;-63
2023/10/26 04:21:05;;;;;;;29.33;6.85;;;18.10;99.90;;;;;;5111421;28;20495;-62
2023/10/26 04:23:31;;;;;;;31.30;7.40;;;18.10;99.90;;;;;;5111506;28;20122;-63
2023/10/26 04:25:57;;;;;;;28.58;7.57;;;18.20;99.90;;;;;;5111362;28;20028;-61
2023/10/26 04:28:23;;;;;;;30.67;7.50;;;18.10;99.90;;;;;;5111268;28;20036;-61
2023/10/26 04:30:49;;;;;;;34.13;7.47;;;18.00;99.90;;;;;;5111311;28;20043;-61
2023/10/26 04:33:16;;;;;;;31.35;7.97;;;17.90;99.90;;;;;;5111500;28;20047;-63
2023/10/26 04:35:42;;;;;;;35.58;8.35;;;17.80;99.90;;;;;;5111644;28;20035;-63
2023/10/26 04:38:08;;;;;;;32.65;8.10;;;17.70;99.90;;;;;;5111274;28;20440;-63
2023/10/26 04:40:35;;;;;;;35.70;7.95;;;17.60;99.90;;;;;;5111218;28;20094;-63
2023/10/26 04:43:00;;;;;;;37.30;8.40;;;17.50;99.90;;;;;;5111156;28;20044;-63
2023/10/26 04:45:26;;;;;;;37.03;8.07;;;17.50;99.90;;;;;;5112715;28;20450;-63
2023/10/26 04:47:51;;;;;;;38.40;8.55;;;17.50;99.90;;;;;;5115348;28;20020;-63
2023/10/26 04:50:17;;;;;;;40.60;10.00;;;17.40;99.90;;;;;;5115312;28;20050;-63
2023/10/26 04:52:43;;;;;;;39.17;8.85;;;17.40;99.90;;;;;;5115890;28;20050;-63
2023/10/26 04:55:08;;;;;;;37.72;8.90;;;17.30;99.90;;;;;;5115363;28;20279;-62
2023/10/26 04:57:34;;;;;;;38.55;9.25;;;17.30;99.90;;;;;;5115090;28;20501;-63
2023/10/26 05:00:00;;;;;;;33.15;8.38;;;17.30;99.90;;;;;;5115026;28;20466;-63
2023/10/26 05:02:26;;;;;;;34.47;8.52;;;17.30;99.90;;;;;;5115221;28;20029;-63
2023/10/26 05:04:51;;;;;;;31.08;7.68;;;17.20;99.90;;;;;;5115024;28;20028;-63
2023/10/26 05:07:17;;;;;;;31.45;7.20;;;17.10;99.90;;;;;;5114929;28;20035;-63
2023/10/26 05:09:43;;;;;;;29.15;7.32;;;17.00;99.90;;;;;;5096744;28;20037;-63
2023/10/26 05:12:08;;;;;;;32.20;7.30;;;17.00;99.90;;;;;;5115171;28;20023;-63
2023/10/26 05:14:34;;;;;;;29.23;6.55;;;16.90;99.90;;;;;;5114504;28;20393;-63
2023/10/26 05:17:00;;;;;;;27.20;6.82;;;16.80;99.90;;;;;;5096554;28;20027;-63
2023/10/26 05:19:25;;;;;;;24.33;6.22;;;16.70;99.90;;;;;;5114708;28;20123;-63
2023/10/26 05:21:51;;;;;;;31.77;7.38;;;16.70;99.90;;;;;;5114644;28;20050;-63
2023/10/26 05:24:17;;;;;;;27.23;7.25;;;16.60;99.90;;;;;;5114451;28;20103;-63
2023/10/26 05:26:42;;;;;;;27.48;6.30;;;16.60;99.90;;;;;;5114762;28;20031;-63
2023/10/26 05:29:08;;;;;;;25.25;6.40;;;16.50;99.90;;;;;;5114177;28;20156;-63
2023/10/26 05:31:34;;;;;;;25.98;6.20;;;16.60;99.90;;;;;;5114509;28;20081;-63
2023/10/26 05:33:59;;;;;;;21.92;5.50;;;16.70;99.90;;;;;;5114502;28;20028;-63
2023/10/26 05:36:25;;;;;;;20.70;4.55;;;16.80;99.90;;;;;;5114363;28;20047;-63
2023/10/26 05:38:50;;;;;;;24.65;5.55;;;16.80;99.90;;;;;;5114350;28;20069;-64
2023/10/26 05:41:16;;;;;;;23.73;5.68;;;16.90;99.90;;;;;;5114339;28;20074;-63
2023/10/26 05:43:42;;;;;;;20.98;5.20;;;16.90;99.90;;;;;;5113768;28;20020;-63
2023/10/26 05:46:07;;;;;;;20.63;4.90;;;17.00;99.90;;;;;;5095912;28;20031;-64
2023/10/26 05:48:34;;;;;;;22.20;5.30;;;17.00;99.90;;;;;;5095947;28;20019;-63
2023/10/26 05:50:59;;;;;;;20.73;5.25;;;16.90;99.90;;;;;;5114491;28;20039;-63
2023/10/26 05:53:25;;;;;;;25.98;5.53;;;16.80;99.90;;;;;;5114102;28;20020;-63
2023/10/26 05:55:58;;;;;;;21.65;5.22;;;16.80;99.90;;;;;;5113282;28;20031;-63
2023/10/26 05:58:25;;;;;;;20.30;5.40;;;16.80;99.90;;;;;;5113936;28;20027;-64
2023/10/26 06:00:51;;;;;;;17.45;5.30;;;16.80;99.90;;;;;;5113969;28;20694;-63
2023/10/26 06:03:16;;;;;;;21.95;4.75;;;16.70;99.90;;;;;;5113574;28;20024;-63
2023/10/26 06:05:42;;;;;;;17.13;4.68;;;16.70;99.90;;;;;;5113554;28;20031;-63
2023/10/26 06:08:08;;;;;;;18.00;5.00;;;16.60;99.90;;;;;;5113699;28;20106;-63
2023/10/26 06:10:33;;;;;;;17.83;4.78;;;16.40;99.90;;;;;;5113550;28;20020;-63
2023/10/26 06:12:59;;;;;;;21.23;5.10;;;16.30;99.90;;;;;;5113704;28;20024;-63
2023/10/26 06:15:25;;;;;;;23.98;4.75;;;16.30;99.90;;;;;;5113642;28;20024;-63
2023/10/26 06:17:50;;;;;;;22.45;5.32;;;16.20;99.90;;;;;;5113535;28;20037;-63
2023/10/26 06:20:16;;;;;;;22.70;4.88;;;16.10;99.90;;;;;;5113513;28;20047;-63
2023/10/26 06:22:42;;;;;;;20.25;5.80;;;16.10;99.90;;;;;;5113580;28;20110;-63
2023/10/26 06:25:08;;;;;;;19.02;4.90;;;16.10;99.90;;;;;;5113252;28;20024;-63
2023/10/26 06:27:34;;;;;;;23.83;5.22;;;16.00;99.90;;;;;;5113513;28;20027;-63
2023/10/26 06:30:00;;;;;;;22.50;5.25;;;16.00;99.90;;;;;;5113166;28;20043;-63
2023/10/26 06:32:26;;;;;;;25.25;5.93;;;16.00;99.90;;;;;;5113389;28;20249;-62
2023/10/26 06:34:52;;;;;;;22.20;5.50;;;16.00;99.90;;;;;;5113715;28;20032;-63
2023/10/26 06:37:17;;;;;;;19.92;5.32;;;15.90;99.90;;;;;;5113170;28;20030;-63
2023/10/26 06:39:43;;;;;;;25.52;6.03;;;15.90;99.90;;;;;;5094661;28;20039;-63
2023/10/26 06:42:08;;;;;;;25.27;5.85;;;15.90;99.90;;;;;;5112616;28;20024;-62
2023/10/26 06:44:36;;;;;;;23.70;5.68;;;15.90;99.90;;;;;;5113123;28;20070;-63
2023/10/26 06:47:02;;;;;;;26.40;5.90;;;15.90;99.90;;;;;;5095079;28;20028;-63
2023/10/26 06:49:27;;;;;;;25.90;5.72;;;15.90;99.90;;;;;;5113074;28;20036;-63
2023/10/26 06:51:53;;;;;;;24.60;5.57;;;15.90;99.90;;;;;;5113012;28;20012;-63
2023/10/26 06:54:19;;;;;;;23.58;5.50;;;15.90;99.90;;;;;;5095332;28;20027;-63
2023/10/26 06:56:45;;;;;;;29.05;6.38;;;15.80;99.90;;;;;;5094297;28;20379;-62
2023/10/26 06:59:10;;;;;;;27.35;6.25;;;15.80;99.90;;;;;;5112705;28;20122;-63
2023/10/26 07:01:38;;;;;;;28.00;6.22;;;15.90;99.90;;;;;;5113033;28;20031;-62
2023/10/26 07:04:04;;;;;;;28.38;6.38;;;15.90;99.90;;;;;;5112939;28;20031;-63
2023/10/26 07:06:30;;;;;;;22.35;6.13;;;15.90;99.90;;;;;;5112420;28;20015;-63
2023/10/26 07:08:56;;;;;;;27.63;6.55;;;15.90;99.90;;;;;;5111581;28;20542;-63
2023/10/26 07:11:21;;;;;;;26.20;6.53;;;15.90;99.90;;;;;;5112756;28;20035;-62
2023/10/26 07:13:47;;;;;;;29.55;7.32;;;16.10;99.90;;;;;;5112522;28;20516;-63
2023/10/26 07:16:12;;;;;;;28.83;7.47;;;16.30;99.90;;;;;;5112455;28;20397;-63
2023/10/26 07:18:39;;;;;;;29.85;7.22;;;16.40;99.90;;;;;;5112902;28;20195;-63
2023/10/26 07:21:08;;;;;;;25.08;7.18;;;16.60;99.90;;;;;;5112334;28;20015;-63
2023/10/26 07:23:34;;;;;;;26.58;8.00;;;16.70;99.90;;;;;;5112029;28;20032;-64
2023/10/26 07:26:00;;;;;;;27.05;8.27;;;16.70;99.90;;;;;;5112213;28;20494;-63
2023/10/26 07:28:26;;;;;;;28.42;7.97;;;16.80;99.90;;;;;;5112140;28;20441;-64
2023/10/26 07:30:52;;;;;;;26.27;7.07;;;16.90;99.90;;;;;;5112063;28;20023;-64
2023/10/26 07:33:19;;;;;;;24.95;6.90;;;16.90;99.90;;;;;;5112134;28;20439;-64
2023/10/26 07:35:52;;;;;;;25.63;6.43;;;16.90;99.90;;;;;;5112105;28;20397;-64
2023/10/26 07:38:18;;;;;;;25.85;6.63;;;16.90;99.90;;;;;;5111913;28;20501;-64
2023/10/26 07:40:48;;;;;;;25.88;7.45;;;16.90;99.90;;;;;;5112136;28;20031;-65
2023/10/26 07:43:14;;;;;;;27.58;7.30;;;16.80;99.90;;;;;;5112115;28;20059;-64
2023/10/26 07:45:40;;;;;;;21.17;6.47;;;16.80;99.90;;;;;;5111907;28;20066;-64
2023/10/26 07:48:05;;;;;;;24.92;7.07;;;16.70;99.90;;;;;;5112499;28;20595;-64
2023/10/26 07:50:31;;;;;;;24.95;6.63;;;16.60;99.90;;;;;;5111864;28;20031;-64
2023/10/26 07:52:57;;;;;;;23.38;6.82;;;16.50;99.90;;;;;;5111348;28;20023;-64
2023/10/26 07:55:23;;;;;;;25.50;7.07;;;16.40;99.90;;;;;;5111982;28;20035;-64
2023/10/26 07:57:48;;;;;;;22.92;6.38;;;16.30;99.90;;;;;;5112246;28;20019;-63
2023/10/26 08:00:14;;;;;;;29.27;7.65;;;16.20;99.90;;;;;;5111816;28;20055;-63
2023/10/26 08:02:40;;;;;;;25.80;7.70;;;16.20;99.90;;;;;;5111762;28;20069;-64
2023/10/26 08:05:07;;;;;;;23.85;7.13;;;16.10;99.90;;;;;;5111862;28;20032;-64
2023/10/26 08:07:33;;;;;;;22.40;6.93;;;16.10;99.90;;;;;;5111321;28;20102;-64
2023/10/26 08:09:58;;;;;;;26.15;6.63;;;16.10;99.90;;;;;;5111830;28;20533;-64
2023/10/26 08:12:24;;;;;;;23.75;6.28;;;16.10;99.90;;;;;;5111697;28;20016;-64
2023/10/26 08:14:55;;;;;;;26.27;7.10;;;16.10;99.90;;;;;;5112040;28;20027;-63
2023/10/26 08:17:21;;;;;;;25.45;7.07;;;16.00;99.90;;;;;;5111249;28;20023;-64
2023/10/26 08:19:53;;;;;;;27.08;6.55;;;16.00;99.90;;;;;;5111161;28;20044;-64
2023/10/26 08:22:20;;;;;;;23.17;6.28;;;16.00;99.90;;;;;;5111244;28;20027;-64
2023/10/26 08:24:49;;;;;;;27.45;6.43;;;16.00;99.90;;;;;;5111462;28;20035;-64
2023/10/26 08:27:15;;;;;;;25.25;6.68;;;16.00;99.90;;;;;;5111482;28;20386;-64
2023/10/26 08:29:41;;;;;;;20.48;5.63;;;16.00;99.90;;;;;;5111726;28;20052;-64
2023/10/26 08:32:07;;;;;;;26.98;5.63;;;16.00;99.90;;;;;;5111295;28;20028;-64
2023/10/26 08:34:33;;;;;;;24.20;5.57;;;16.00;99.90;;;;;;5111043;28;20511;-63
2023/10/26 08:37:02;;;;;;;17.33;4.65;;;16.00;99.90;;;;;;5111049;28;20055;-62
2023/10/26 08:39:27;;;;;;;16.48;4.47;;;15.90;99.90;;;;;;5111402;28;20032;-63
2023/10/26 08:41:57;;;;;;;16.52;4.10;;;15.80;99.90;;;;;;5111419;28;20500;-63
2023/10/26 08:44:25;;;;;;;13.95;3.63;;;15.80;99.90;;;;;;5111341;28;20020;-63
2023/10/26 08:46:53;;;;;;;14.35;3.97;;;15.80;99.90;;;;;;5111236;28;20034;-63
2023/10/26 08:49:21;;;;;;;16.58;4.32;;;15.70;99.90;;;;;;5111602;28;20022;-63
2023/10/26 08:51:47;;;;;;;14.55;3.55;;;15.70;99.90;;;;;;5110913;28;20019;-63
2023/10/26 08:54:13;;;;;;;12.02;4.00;;;15.80;99.90;;;;;;5111398;28;20104;-63
2023/10/26 08:56:39;;;;;;;12.90;3.80;;;15.90;99.90;;;;;;5110995;28;20098;-63
2023/10/26 08:59:04;;;;;;;15.52;4.47;;;16.10;99.90;;;;;;5111337;28;20486;-63
2023/10/26 09:01:30;;;;;;;12.27;3.55;;;16.30;99.90;;;;;;5111653;28;20392;-63
2023/10/26 09:03:56;;;;;;;9.75;3.10;;;16.30;99.90;;;;;;5111095;28;20062;-63
2023/10/26 09:06:21;;;;;;;11.05;3.35;;;16.40;99.90;;;;;;5111047;28;20047;-62
2023/10/26 09:09:01;;;;;;;11.98;4.00;;;16.50;99.90;;;;;;5111242;28;20027;-63
2023/10/26 09:11:27;;;;;;;11.10;3.55;;;16.40;99.90;;;;;;5111175;28;20125;-63
2023/10/26 09:13:53;;;;;;;11.13;3.60;;;16.40;99.90;;;;;;5111223;28;20556;-63
2023/10/26 09:16:18;;;;;;;11.57;3.13;;;16.50;99.90;;;;;;5110975;28;20027;-63
2023/10/26 09:18:50;;;;;;;9.93;3.50;;;16.50;99.90;;;;;;5110930;28;20023;-63
2023/10/26 09:21:16;;;;;;;9.88;3.33;;;16.60;99.90;;;;;;5111116;28;20032;-63
2023/10/26 09:23:42;;;;;;;11.88;3.70;;;16.50;99.90;;;;;;5110874;28;20031;-63
2023/10/26 09:26:09;;;;;;;11.27;3.95;;;16.60;99.90;;;;;;5110934;28;20055;-63
2023/10/26 09:28:56;;;;;;;11.60;5.13;;;16.50;99.90;;;;;;5110835;28;20056;-62
2023/10/26 09:31:23;;;;;;;12.75;4.70;;;16.40;99.90;;;;;;5112364;28;20300;-61
2023/10/26 09:33:50;;;;;;;14.05;4.63;;;16.30;99.90;;;;;;5114516;28;20031;-61
2023/10/26 09:36:17;;;;;;;11.20;4.10;;;16.20;99.90;;;;;;5113979;28;20015;-61
2023/10/26 09:38:44;;;;;;;14.57;4.00;;;16.10;99.90;;;;;;5114445;28;20115;-61
2023/10/26 09:41:12;;;;;;;13.32;4.07;;;16.00;99.90;;;;;;5096137;28;20449;-62
2023/10/26 09:43:42;;;;;;;12.20;3.88;;;16.00;99.90;;;;;;5114200;28;20034;-62
2023/10/26 09:46:08;;;;;;;13.88;3.70;;;16.00;99.90;;;;;;5114285;28;20024;-62
2023/10/26 09:48:34;;;;;;;14.05;4.25;;;15.90;99.90;;;;;;5114066;28;20027;-63
2023/10/26 09:51:00;;;;;;;14.75;4.22;;;15.90;99.90;;;;;;5114155;28;20092;-62
2023/10/26 09:53:45;;;;;;;12.32;3.75;;;15.80;99.90;;;;;;5114186;28;20039;-62
2023/10/26 09:56:19;;;;;;;15.20;4.30;;;15.90;99.90;;;;;;5114552;28;20106;-63
2023/10/26 09:58:45;;;;;;;13.15;4.10;;;15.80;99.90;;;;;;5114140;28;20030;-62
2023/10/26 10:01:30;;;;;;;14.10;4.07;;;15.80;99.90;;;;;;5113828;28;20040;-63
2023/10/26 10:03:56;;;;;;;13.18;4.05;;;15.80;99.90;;;;;;5113498;28;20042;-62
2023/10/26 10:06:50;;;;;;;13.52;3.97;;;15.80;99.90;;;;;;5113851;28;20024;-62
2023/10/26 10:09:20;;;;;;;12.07;4.22;;;15.80;99.90;;;;;;5113921;28;20030;-63
2023/10/26 10:12:06;;;;;;;13.40;4.03;;;15.80;99.90;;;;;;5113849;28;20451;-62
2023/10/26 10:14:46;;;;;;;17.20;5.22;;;15.80;99.90;;;;;;5113629;28;20023;-63
2023/10/26 10:17:12;;;;;;;14.52;6.15;;;15.80;99.90;;;;;;5114071;28;20019;-62
2023/10/26 10:19:40;;;;;;;13.10;5.47;;;15.80;99.90;;;;;;5113259;28;20112;-63
2023/10/26 10:22:38;;;;;;;13.10;5.22;;;15.80;99.90;;;;;;5113404;28;20028;-63
2023/10/26 10:25:04;;;;;;;12.02;4.47;;;15.70;99.90;;;;;;5113332;28;20031;-63
2023/10/26 10:27:30;;;;;;;13.65;4.43;;;15.70;99.90;;;;;;5113405;28;20119;-63
2023/10/26 10:30:07;;;;;;;12.07;3.78;;;15.70;99.90;;;;;;5113178;28;20115;-63
2023/10/26 10:32:45;;;;;;;10.50;3.85;;;15.60;99.90;;;;;;5113104;28;20031;-63
2023/10/26 10:35:13;;;;;;;10.10;3.13;;;15.70;99.90;;;;;;5113316;28;20477;-63
2023/10/26 10:37:59;;;;;;;8.52;2.88;;;15.90;99.90;;;;;;5113692;28;20024;-63
2023/10/26 10:40:25;;;;;;;12.70;3.22;;;16.10;99.90;;;;;;5113074;28;20032;-63
2023/10/26 10:42:51;;;;;;;9.10;3.08;;;16.10;99.90;;;;;;5113124;28;20024;-64
2023/10/26 10:45:18;;;;;;;10.02;3.05;;;16.20;99.90;;;;;;5113142;28;20026;-63
2023/10/26 10:47:46;;;;;;;11.50;3.53;;;16.30;99.90;;;;;;5094976;28;20042;-63
2023/10/26 10:50:21;;;;;;;11.25;3.05;;;16.30;99.90;;;;;;5113134;28;20449;-64
2023/10/26 10:52:54;;;;;;;8.25;3.00;;;16.40;99.90;;;;;;5113542;28;20030;-64
2023/10/26 10:55:23;;;;;;;;;;;16.50;99.90;;;;;;5113423;28;20051;-63
2023/10/26 10:57:59;;;;;;;8.95;3.00;;;16.50;99.90;;;;;;5112997;28;19904;-63
2023/10/26 11:00:27;;;;;;;12.25;3.35;;;16.60;99.90;;;;;;5112464;28;20380;-63
2023/10/26 11:02:56;;;;;;;8.55;3.22;;;16.50;99.90;;;;;;5113167;28;20024;-63
2023/10/26 11:05:36;;;;;;;8.43;3.00;;;16.50;99.90;;;;;;5112898;28;20353;-63
2023/10/26 11:08:04;;;;;;;10.10;3.45;;;16.50;99.90;;;;;;5112919;28;20030;-63
2023/10/26 11:10:30;;;;;;;11.27;4.43;;;16.40;99.90;;;;;;5112652;28;20043;-62
2023/10/26 11:12:55;;;;;;;10.00;3.10;;;16.30;99.90;;;;;;5113137;28;20470;-62
2023/10/26 11:15:31;;;;;;;12.02;2.78;;;16.20;99.90;;;;;;5112623;28;20019;-63
2023/10/26 11:17:56;;;;;;;9.45;2.65;;;16.10;99.90;;;;;;5112470;28;20029;-63
2023/10/26 11:20:39;;;;;;;9.07;2.80;;;16.10;99.90;;;;;;5112457;28;20134;-63
2023/10/26 11:23:10;;;;;;;9.87;3.30;;;16.00;99.90;;;;;;5112840;28;20119;-63
2023/10/26 11:25:36;;;;;;;10.45;2.97;;;16.00;99.90;;;;;;5112338;28;20058;-63
2023/10/26 11:28:02;;;;;;;11.30;3.15;;;15.90;99.90;;;;;;5112147;28;20028;-63
2023/10/26 11:30:29;;;;;;;11.88;3.20;;;15.90;99.90;;;;;;5111956;28;20035;-63
2023/10/26 11:32:54;;;;;;;12.65;3.30;;;15.90;99.90;;;;;;5112768;28;20118;-63
2023/10/26 11:35:20;;;;;;;11.43;2.92;;;15.90;99.90;;;;;;5112252;28;20099;-62
2023/10/26 11:37:54;;;;;;;14.18;3.55;;;15.90;99.90;;;;;;5112170;28;20027;-62
2023/10/26 11:40:29;;;;;;;10.55;3.72;;;15.90;99.90;;;;;;5112085;28;20063;-62
2023/10/26 11:42:59;;;;;;;10.65;3.83;;;15.90;99.90;;;;;;5111874;28;20068;-62
2023/10/26 11:45:26;;;;;;;9.07;3.60;;;15.80;99.90;;;;;;5111436;28;20126;-63
2023/10/26 11:47:53;;;;;;;9.48;4.10;;;15.90;99.90;;;;;;5112036;28;20080;-63
2023/10/26 11:50:23;;;;;;;11.45;3.80;;;15.80;99.90;;;;;;5112145;28;20106;-62
2023/10/26 11:52:51;;;;;;;12.52;4.80;;;15.90;99.90;;;;;;5111890;28;20077;-63
2023/10/26 11:55:18;;;;;;;15.23;4.38;;;15.80;99.90;;;;;;5111384;28;20023;-63
2023/10/26 11:57:45;;;;;;;12.48;4.50;;;15.80;99.90;;;;;;5111658;28;20027;-63
2023/10/26 12:00:11;;;;;;;13.27;4.50;;;15.80;99.90;;;;;;5111390;28;20039;-63
2023/10/26 12:02:38;;;;;;;13.02;4.00;;;15.90;99.90;;;;;;5111850;28;20032;-62
2023/10/26 12:05:04;;;;;;;9.73;3.85;;;15.80;99.90;;;;;;5111895;28;20024;-63
2023/10/26 12:07:31;;;;;;;13.75;3.95;;;15.90;99.90;;;;;;5111679;28;20038;-62
2023/10/26 12:09:56;;;;;;;11.93;3.90;;;15.90;99.90;;;;;;5111604;28;20536;-63
2023/10/26 12:12:22;;;;;;;13.43;4.20;;;15.80;99.90;;;;;;5111529;28;20019;-63
2023/10/26 12:14:48;;;;;;;10.95;3.85;;;15.90;99.90;;;;;;5111278;28;20070;-63
2023/10/26 12:17:14;;;;;;;12.07;3.53;;;16.00;99.90;;;;;;5111885;28;20016;-63
2023/10/26 12:19:39;;;;;;;11.68;3.58;;;16.20;99.90;;;;;;5092923;28;20497;-63
2023/10/26 12:22:05;;;;;;;12.20;3.55;;;16.30;99.90;;;;;;5111682;28;20059;-63
2023/10/26 12:24:32;;;;;;;11.20;3.83;;;16.30;99.90;;;;;;5111436;28;20023;-64
2023/10/26 12:27:00;;;;;;;10.20;3.85;;;16.40;99.90;;;;;;5111302;28;20062;-63
2023/10/26 12:29:25;;;;;;;10.82;3.58;;;16.50;99.90;;;;;;5111132;28;20066;-64
2023/10/26 12:31:51;;;;;;;11.38;3.30;;;16.50;99.90;;;;;;5111780;28;20024;-63
2023/10/26 12:34:19;;;;;;;11.18;3.55;;;16.50;99.90;;;;;;5111493;28;20162;-63
2023/10/26 12:36:45;;;;;;;11.85;3.33;;;16.50;99.90;;;;;;5111455;28;20016;-63